Lodoga, California
Current Conditions -  °F | °C
As of 8:56 PM on Wednesday 17 Dec 2014 (Local Time) from KUKI Reporting Station
Light Rain Light Rain  
Wind Chill: 48°   Ceiling: 2300
Heat Index: 48°   Visibility: 7mi
Dew Point: 45°   Wind: 0mph
Humidity: 89%   Direction: NA
Pressure: 30.04"   Gusts: NA
Location:  39.3318°N, 122.533°W
Report Text: KUKI 180456Z AUTO 00000KT 7SM -RA BKN023 OVC030 09/07 A3004 RMK AO2 SLP170 P0002 T00890072
Loading
Personal Weather Stations






























Interactive Weather Map New forecast layout! Learn more

10-Day Weather Forecast

Advertisements
Track Severe Weather on mobile